Fishertown, Pennsylvania
Current Conditions -  °F | °C
As of 1:31 AM on Saturday 29 Nov 2014 (Local Time) from KAOO Reporting Station
Light Snow Light Snow  
Wind Chill: 25°   Ceiling: 2800
Heat Index: 25°   Visibility: 3mi
Dew Point: 19°   Wind: 0mph
Humidity: 78%   Direction: NA
Pressure: 30.19"   Gusts: NA
Location:  40.12°N, 78.58°W
Report Text: KAOO 290631Z AUTO 00000KT 3SM -SN OVC028 M04/M07 A3019 RMK AO2 SNB04 P0000 T10391072
Loading
Personal Weather Stations






























Interactive Weather Map New forecast layout! Learn more

10-Day Weather Forecast

Advertisements
Track Severe Weather on mobile